Foxfield, Colorado
Current Conditions -  °F | °C
As of 4:58 PM on Sunday 23 Nov 2014 (Local Time) from KBKF Reporting Station
Broken Clouds Broken Clouds  
Wind Chill: 20°   Ceiling: 8000
Heat Index: 31°   Visibility: 10mi
Dew Point: 17°   Wind: 18mph
Humidity: 56%   Direction: 330°NNW
Pressure: 29.88"   Gusts: 24mph
Location:  39.6109°N, 104.687°W
Report Text: KBKF 232358Z 33016G21KT 10SM SCT020 BKN080 00/M08 A2988 RMK AO2A SNE2317 SLP122 P0000 60000 T10031082 10061 21012 52030
Loading
Personal Weather Stations






























Interactive Weather Map New forecast layout! Learn more

10-Day Weather Forecast

Advertisements
Track Severe Weather on mobile